Lebanon, NH (03756)

2:04 AM EDT on July 26, 2016 (GMT -0400)
Spring Street | | Change Station

Elev 617 ft 43.64 °N, 72.25 °W | Updated 46 seconds ago

Mist
Mist
66.0 °F
Feels Like 66.0 °F
N
0.0
Wind Variable Wind from SW
Gusts 0.0 mph

Today
High -- | Low -- °F
--% Chance of Precip.
Yesterday
High -- | Low -- °F
Precip. -- in
Pressure 29.77 in
Visibility 1.0 miles
Clouds
Dew Point 66 °F
Humidity 99%
Rainfall 0.00 in
Snow Depth Not available.
5:32 AM 8:18 PM
Waning Gibbous, 58% visible
SPECI KLEB 260601Z AUTO 00000KT 1SM BR VV001 19/17 A2977 RMK AO2 T01890172
Pressure 29.77 in
Visibility 1.0 miles
Clouds
Dew Point 66 °F
Humidity 99%
Rainfall 0.00 in
Snow Depth Not available.
5:32 AM 8:18 PM
Waning Gibbous, 58% visible
SPECI KLEB 260601Z AUTO 00000KT 1SM BR VV001 19/17 A2977 RMK AO2 T01890172

10-Day Weather Forecast

Almanac

Astronomy

Jul. 26, 2016 Rise Set
Actual Time
Civil Twilight
Nautical Twilight
Astronomical Twilight
Moon
Length of Visible Light
Length of Day
Tomorrow will be .
, % of the Moon is Illuminated

Today's Extremes

State Highs State Lows

Community

WunderPhotos

Upload Photos

1,927,547 photos uploaded!

WunderBlog® & News

Nearby

Air Quality

  Air Quality AQ Index Pollutant
Not available.

Snow Depth

Station Depth Elevation

Earthquake Activity

City Distance Mag. Time & Date
Minimum magnitude displayed is 2.5.

Coastal Water Temperatures

Place Temperature

Stations

Nearby Weather Stations

Station Location Temp. Windchill Dew Point Humidity Wind Precip. Elev Updated Type
                   

Watches & Warnings

There are currently no watches in effect.